Time;durP1;ratioP1;P1;durP2;ratioP2;P2;SDS_P1;SDS_P2;PMS_P1;PMS_P2;Temp;Humidity;BMP_temperature;BMP_pressure;BME280_temperature;BME280_humidity;BME280_pressure;Samples;Min_cycle;Max_cycle;Signal;HPM_P1;HPM_P2
2022/11/09 00:00:38;;;;;;;6.68;5.88;;;;;;;;;;5028282;28;20132;-74
2022/11/09 00:03:06;;;;;;;5.40;4.90;;;;;;;;;;5023095;28;20056;-74
2022/11/09 00:05:33;;;;;;;5.25;4.75;;;;;;;;;;5023477;28;20038;-71
2022/11/09 00:08:01;;;;;;;8.13;5.55;;;;;;;;;;5027740;28;20557;-71
2022/11/09 00:10:28;;;;;;;6.18;5.50;;;;;;;;;;5026810;28;20050;-72
2022/11/09 00:12:55;;;;;;;7.85;6.30;;;;;;;;;;5022104;28;20060;-71
2022/11/09 00:15:23;;;;;;;8.90;6.32;;;;;;;;;;5027044;28;20072;-71
2022/11/09 00:17:50;;;;;;;8.52;6.90;;;;;;;;;;5027892;28;20529;-72
2022/11/09 00:20:17;;;;;;;8.32;6.38;;;;;;;;;;5027805;28;20049;-73
2022/11/09 00:22:48;;;;;;;7.28;6.50;;;;;;;;;;5027106;28;20041;-73
2022/11/09 00:25:16;;;;;;;9.95;7.03;;;;;;;;;;5027627;28;20576;-74
2022/11/09 00:27:43;;;;;;;14.40;7.57;;;;;;;;;;5026276;28;20042;-73
2022/11/09 00:30:11;;;;;;;7.80;7.03;;;;;;;;;;5027505;28;20116;-73
2022/11/09 00:32:38;;;;;;;9.95;7.55;;;;;;;;;;5025811;28;20044;-73
2022/11/09 00:35:06;;;;;;;8.95;7.07;;;;;;;;;;5010085;28;20045;-71
2022/11/09 00:37:34;;;;;;;10.68;7.47;;;;;;;;;;5026429;28;20128;-71
2022/11/09 00:40:01;;;;;;;8.57;7.25;;;;;;;;;;5028049;28;20417;-71
2022/11/09 00:42:29;;;;;;;9.95;7.68;;;;;;;;;;5025385;28;20045;-72
2022/11/09 00:44:56;;;;;;;10.75;8.38;;;;;;;;;;5021949;28;20441;-72
2022/11/09 00:47:24;;;;;;;11.70;9.10;;;;;;;;;;5027004;28;20049;-72
2022/11/09 00:49:51;;;;;;;12.15;8.95;;;;;;;;;;5027051;28;20042;-72
2022/11/09 00:52:19;;;;;;;10.88;8.18;;;;;;;;;;5009177;28;20033;-72
2022/11/09 00:54:46;;;;;;;9.02;7.78;;;;;;;;;;5027413;28;20041;-72
2022/11/09 00:57:13;;;;;;;8.25;7.07;;;;;;;;;;5027303;28;20045;-72
2022/11/09 00:59:43;;;;;;;8.80;7.40;;;;;;;;;;5026193;28;20042;-72
2022/11/09 01:02:11;;;;;;;7.95;7.13;;;;;;;;;;5024951;28;20045;-72
2022/11/09 01:04:38;;;;;;;8.50;7.50;;;;;;;;;;5008156;28;20053;-71
2022/11/09 01:07:06;;;;;;;8.35;7.20;;;;;;;;;;5027336;28;20042;-71
2022/11/09 01:09:34;;;;;;;8.25;7.38;;;;;;;;;;5027251;28;20042;-72
2022/11/09 01:12:01;;;;;;;10.15;7.28;;;;;;;;;;5026493;28;20520;-72
2022/11/09 01:14:28;;;;;;;9.70;8.70;;;;;;;;;;5026510;28;20146;-72
2022/11/09 01:16:56;;;;;;;9.82;8.27;;;;;;;;;;5022630;28;20034;-72
2022/11/09 01:19:25;;;;;;;7.80;6.97;;;;;;;;;;5009207;28;20045;-72
2022/11/09 01:21:52;;;;;;;8.20;7.30;;;;;;;;;;5024646;28;20060;-72
2022/11/09 01:24:20;;;;;;;8.63;7.45;;;;;;;;;;5026422;28;20084;-73
2022/11/09 01:26:47;;;;;;;8.68;7.85;;;;;;;;;;5009243;28;20120;-72
2022/11/09 01:29:15;;;;;;;6.55;5.88;;;;;;;;;;5027035;28;20121;-72
2022/11/09 01:31:47;;;;;;;9.50;7.18;;;;;;;;;;5035265;22;20048;-88
2022/11/09 01:34:18;;;;;;;7.90;6.90;;;;;;;;;;4974517;28;20045;-88
2022/11/09 01:36:45;;;;;;;10.23;8.55;;;;;;;;;;4973143;28;20456;-87
2022/11/09 01:39:13;;;;;;;9.30;7.43;;;;;;;;;;5006331;28;20455;-88
2022/11/09 01:41:42;;;;;;;8.70;7.72;;;;;;;;;;4957125;28;20050;-87
2022/11/09 01:44:15;;;;;;;11.45;7.88;;;;;;;;;;4957107;28;20070;-88
2022/11/09 01:47:09;;;;;;;10.93;8.48;;;;;;;;;;4988222;28;20070;-88
2022/11/09 01:49:40;;;;;;;9.02;8.07;;;;;;;;;;5011478;28;20563;-88
2022/11/09 01:52:15;;;;;;;7.60;6.80;;;;;;;;;;4975499;28;20408;-89
2022/11/09 01:54:47;;;;;;;8.70;7.53;;;;;;;;;;4976161;28;20046;-87
2022/11/09 01:57:26;;;;;;;8.77;7.75;;;;;;;;;;4993129;28;20128;-88
2022/11/09 01:59:59;;;;;;;8.35;7.10;;;;;;;;;;4992477;28;20049;-87
2022/11/09 02:02:27;;;;;;;10.13;7.40;;;;;;;;;;4992067;28;20496;-87
2022/11/09 02:05:00;;;;;;;12.13;7.63;;;;;;;;;;4975817;28;20081;-87
2022/11/09 02:07:28;;;;;;;10.75;8.38;;;;;;;;;;4998037;28;20046;-87
2022/11/09 02:10:02;;;;;;;8.60;6.60;;;;;;;;;;4976620;28;20503;-87
2022/11/09 02:12:35;;;;;;;9.73;6.35;;;;;;;;;;5007324;28;20042;-87
2022/11/09 02:15:05;;;;;;;10.50;6.22;;;;;;;;;;4992560;28;20045;-87
2022/11/09 02:17:37;;;;;;;12.10;6.20;;;;;;;;;;4996197;28;20038;-86
2022/11/09 02:20:15;;;;;;;6.97;5.90;;;;;;;;;;4995888;28;20058;-88
2022/11/09 02:22:50;;;;;;;6.65;6.03;;;;;;;;;;4992909;28;20060;-86
2022/11/09 02:29:01;;;;;;;;;;;;;;;;;;;;;
2022/11/09 02:31:44;;;;;;;16.48;7.45;;;;;;;;;;4958707;28;20055;-86
2022/11/09 02:34:16;;;;;;;11.98;5.65;;;;;;;;;;4976903;28;20108;-88
2022/11/09 02:36:43;;;;;;;8.13;5.97;;;;;;;;;;4985750;28;20029;-88
2022/11/09 02:39:17;;;;;;;6.15;5.60;;;;;;;;;;5012185;28;20050;-89
2022/11/09 02:41:51;;;;;;;6.53;4.80;;;;;;;;;;5012517;28;20658;-86
2022/11/09 02:44:19;;;;;;;6.60;5.55;;;;;;;;;;5012045;28;20049;-86
2022/11/09 02:46:46;;;;;;;6.47;5.88;;;;;;;;;;4991866;28;20050;-86
2022/11/09 02:49:14;;;;;;;8.02;6.93;;;;;;;;;;4992161;28;20039;-86
2022/11/09 02:51:41;;;;;;;6.72;5.93;;;;;;;;;;4991893;28;20065;-86
2022/11/09 02:54:09;;;;;;;7.40;6.57;;;;;;;;;;4994601;28;20586;-86
2022/11/09 02:56:38;;;;;;;5.85;5.20;;;;;;;;;;5010047;28;20459;-86
2022/11/09 02:59:09;;;;;;;7.95;5.80;;;;;;;;;;4994946;28;20077;-86
2022/11/09 03:01:42;;;;;;;8.27;7.43;;;;;;;;;;5010769;28;20054;-87
2022/11/09 03:04:14;;;;;;;7.22;6.05;;;;;;;;;;4978527;28;20046;-86
2022/11/09 03:06:42;;;;;;;7.38;6.55;;;;;;;;;;5011507;28;20042;-86
2022/11/09 03:09:14;;;;;;;8.38;5.72;;;;;;;;;;4978588;28;20046;-86
2022/11/09 03:11:45;;;;;;;8.75;6.93;;;;;;;;;;4993363;28;20119;-87
2022/11/09 03:14:15;;;;;;;8.48;7.20;;;;;;;;;;4994215;28;20050;-87
2022/11/09 03:16:48;;;;;;;8.77;6.55;;;;;;;;;;5002199;28;20058;-86
2022/11/09 03:19:18;;;;;;;9.75;7.47;;;;;;;;;;4987289;28;20084;-86
2022/11/09 03:21:47;;;;;;;13.55;6.78;;;;;;;;;;4975925;28;20054;-87
2022/11/09 03:24:15;;;;;;;10.45;6.57;;;;;;;;;;4991316;28;20089;-87
2022/11/09 03:26:42;;;;;;;8.57;6.93;;;;;;;;;;4974220;28;20058;-86
2022/11/09 03:29:10;;;;;;;8.80;6.22;;;;;;;;;;4974880;28;20137;-86
2022/11/09 03:31:38;;;;;;;9.15;6.70;;;;;;;;;;4973161;28;20050;-86
2022/11/09 03:34:09;;;;;;;20.30;7.20;;;;;;;;;;4990959;28;20435;-86
2022/11/09 03:36:38;;;;;;;8.07;6.50;;;;;;;;;;5010032;28;20050;-86
2022/11/09 03:39:06;;;;;;;9.35;5.93;;;;;;;;;;4991157;28;20145;-86
2022/11/09 03:41:34;;;;;;;7.88;7.07;;;;;;;;;;4974921;28;20042;-86
2022/11/09 03:44:01;;;;;;;7.03;6.32;;;;;;;;;;4974734;28;20050;-86
2022/11/09 03:46:29;;;;;;;6.07;5.50;;;;;;;;;;4983623;28;20046;-86
2022/11/09 03:48:57;;;;;;;5.88;5.18;;;;;;;;;;5010292;28;20125;-87
2022/11/09 03:51:24;;;;;;;6.40;5.80;;;;;;;;;;4993770;28;20054;-86
2022/11/09 03:53:52;;;;;;;6.78;5.32;;;;;;;;;;5010435;28;20519;-86
2022/11/09 03:56:19;;;;;;;5.10;4.43;;;;;;;;;;4977650;28;20049;-86
2022/11/09 03:58:46;;;;;;;5.00;4.50;;;;;;;;;;4994102;28;20045;-86
2022/11/09 04:01:14;;;;;;;5.97;5.38;;;;;;;;;;5008691;28;20561;-86
2022/11/09 04:03:42;;;;;;;7.20;6.50;;;;;;;;;;4977802;28;20062;-86
2022/11/09 04:06:17;;;;;;;5.68;5.18;;;;;;;;;;4993763;28;20060;-87
2022/11/09 04:08:48;;;;;;;6.28;5.68;;;;;;;;;;5009219;28;20550;-86
2022/11/09 04:11:29;;;;;;;6.28;5.35;;;;;;;;;;4993698;28;20751;-88
2022/11/09 04:14:03;;;;;;;5.22;4.78;;;;;;;;;;4989841;28;20652;-87
2022/11/09 04:16:41;;;;;;;5.68;4.90;;;;;;;;;;4973354;28;20294;-88
2022/11/09 04:19:12;;;;;;;5.07;4.57;;;;;;;;;;4973363;28;20534;-89
2022/11/09 04:22:15;;;;;;;6.15;5.55;;;;;;;;;;4960769;28;20050;-88
2022/11/09 04:24:49;;;;;;;5.53;4.93;;;;;;;;;;4989840;28;20066;-87
2022/11/09 04:31:02;;;;;;;6.03;5.38;;;;;;;;;;4986883;28;20554;-89
2022/11/09 04:33:35;;;;;;;7.90;6.20;;;;;;;;;;4991817;28;20052;-88
2022/11/09 04:36:04;;;;;;;7.10;5.68;;;;;;;;;;4994006;28;20044;-88
2022/11/09 04:38:31;;;;;;;6.75;5.60;;;;;;;;;;4966708;28;20137;-88
2022/11/09 04:41:05;;;;;;;5.10;4.50;;;;;;;;;;4962327;28;20049;-89
2022/11/09 04:43:35;;;;;;;7.03;4.85;;;;;;;;;;4978297;28;20037;-89
2022/11/09 04:46:14;;;;;;;5.68;4.53;;;;;;;;;;4992178;28;20037;-89
2022/11/09 04:48:43;;;;;;;5.88;4.15;;;;;;;;;;5009505;28;20042;-86
2022/11/09 04:51:18;;;;;;;5.78;5.03;;;;;;;;;;5008239;28;20041;-87
2022/11/09 04:53:48;;;;;;;5.35;4.88;;;;;;;;;;4985377;28;20048;-87
2022/11/09 04:56:16;;;;;;;5.38;4.88;;;;;;;;;;5009422;28;20049;-88
2022/11/09 04:58:44;;;;;;;5.30;4.80;;;;;;;;;;4993501;28;20049;-88
2022/11/09 05:01:17;;;;;;;5.07;4.60;;;;;;;;;;4992863;28;20514;-88
2022/11/09 05:03:45;;;;;;;5.40;4.90;;;;;;;;;;4992844;28;20046;-88
2022/11/09 05:06:34;;;;;;;5.32;4.82;;;;;;;;;;4993315;28;20049;-88
2022/11/09 05:09:06;;;;;;;5.30;4.55;;;;;;;;;;4975088;28;20050;-87
2022/11/09 05:11:34;;;;;;;5.03;4.10;;;;;;;;;;5009324;28;20042;-87
2022/11/09 05:14:03;;;;;;;4.55;4.15;;;;;;;;;;4977005;28;20049;-86
2022/11/09 05:16:31;;;;;;;4.72;4.05;;;;;;;;;;4993124;28;20049;-87
2022/11/09 05:19:04;;;;;;;4.90;4.28;;;;;;;;;;4993445;28;20042;-87
2022/11/09 05:21:32;;;;;;;4.90;4.40;;;;;;;;;;4961204;28;20053;-86
2022/11/09 05:23:59;;;;;;;4.80;4.38;;;;;;;;;;4991722;28;20188;-87
2022/11/09 05:26:31;;;;;;;4.75;4.35;;;;;;;;;;4996414;28;20054;-86
2022/11/09 05:29:02;;;;;;;4.90;4.40;;;;;;;;;;5034680;28;20045;-85
2022/11/09 05:31:30;;;;;;;4.65;4.25;;;;;;;;;;5000709;28;20062;-87
2022/11/09 05:33:58;;;;;;;6.82;5.03;;;;;;;;;;4997309;28;20044;-87
2022/11/09 05:36:26;;;;;;;5.30;4.60;;;;;;;;;;5015737;28;20650;-87
2022/11/09 05:38:59;;;;;;;5.47;4.97;;;;;;;;;;4994611;28;20073;-88
2022/11/09 05:41:31;;;;;;;4.82;4.32;;;;;;;;;;5009065;28;20041;-88
2022/11/09 05:44:03;;;;;;;5.47;4.85;;;;;;;;;;4961767;28;20057;-88
2022/11/09 05:46:51;;;;;;;5.18;4.68;;;;;;;;;;4964182;28;20077;-87
2022/11/09 05:49:20;;;;;;;6.07;4.65;;;;;;;;;;4961210;28;20046;-88
2022/11/09 05:51:47;;;;;;;4.53;4.13;;;;;;;;;;4992165;28;20050;-88
2022/11/09 05:54:16;;;;;;;5.22;4.75;;;;;;;;;;4976717;28;20054;-88
2022/11/09 05:56:43;;;;;;;6.15;5.55;;;;;;;;;;4993533;28;20050;-87
2022/11/09 05:59:11;;;;;;;7.38;5.30;;;;;;;;;;4993075;28;20057;-88
2022/11/09 06:01:41;;;;;;;6.00;5.50;;;;;;;;;;4977495;28;20054;-88
2022/11/09 06:04:08;;;;;;;5.63;5.10;;;;;;;;;;4976991;28;20458;-88
2022/11/09 06:06:36;;;;;;;6.30;5.70;;;;;;;;;;4960524;28;20100;-86
2022/11/09 06:09:04;;;;;;;5.43;4.95;;;;;;;;;;4993203;28;20048;-88
2022/11/09 06:11:32;;;;;;;7.10;5.10;;;;;;;;;;4990024;28;20698;-88
2022/11/09 06:14:00;;;;;;;6.60;5.47;;;;;;;;;;5009171;28;20046;-88
2022/11/09 06:16:28;;;;;;;6.38;5.18;;;;;;;;;;4989684;28;20053;-88
2022/11/09 06:19:00;;;;;;;6.03;5.30;;;;;;;;;;4992783;28;20057;-88
2022/11/09 06:21:31;;;;;;;4.72;4.32;;;;;;;;;;4992646;28;20084;-88
2022/11/09 06:23:58;;;;;;;5.55;5.03;;;;;;;;;;4976906;28;20127;-88
2022/11/09 06:26:26;;;;;;;5.80;5.25;;;;;;;;;;4992733;28;20057;-88
2022/11/09 06:28:54;;;;;;;8.95;4.97;;;;;;;;;;5007572;28;20415;-88
2022/11/09 06:31:22;;;;;;;5.38;4.88;;;;;;;;;;4988362;28;20641;-89
2022/11/09 06:33:53;;;;;;;4.97;4.47;;;;;;;;;;4971403;28;20050;-89
2022/11/09 06:36:31;;;;;;;5.68;4.57;;;;;;;;;;4984657;28;20156;-89
2022/11/09 06:39:02;;;;;;;5.60;4.38;;;;;;;;;;5015255;28;20046;-88
2022/11/09 06:41:30;;;;;;;5.18;4.57;;;;;;;;;;4989216;28;20037;-88
2022/11/09 06:44:09;;;;;;;5.93;4.97;;;;;;;;;;5031146;28;20129;-88
2022/11/09 06:46:44;;;;;;;5.15;4.70;;;;;;;;;;5016897;28;20053;-89
2022/11/09 06:49:21;;;;;;;5.28;4.78;;;;;;;;;;4994995;28;20050;-88
2022/11/09 06:52:25;;;;;;;4.47;4.07;;;;;;;;;;4979329;28;20064;-89
2022/11/09 06:55:22;;;;;;;4.30;3.90;;;;;;;;;;4967763;28;20046;-89
2022/11/09 06:58:10;;;;;;;5.40;4.90;;;;;;;;;;5004195;28;20046;-89
2022/11/09 07:00:44;;;;;;;4.60;4.20;;;;;;;;;;4991347;28;20113;-89
2022/11/09 07:03:16;;;;;;;3.50;3.20;;;;;;;;;;4995301;28;20064;-88
2022/11/09 07:05:52;;;;;;;4.68;4.13;;;;;;;;;;4979441;28;20500;-88
2022/11/09 07:08:20;;;;;;;4.40;3.88;;;;;;;;;;5008732;28;20049;-90
2022/11/09 07:10:59;;;;;;;5.75;5.18;;;;;;;;;;5011475;28;20038;-88
2022/11/09 07:13:35;;;;;;;5.18;4.68;;;;;;;;;;5013362;28;20050;-87
2022/11/09 07:16:16;;;;;;;5.50;4.95;;;;;;;;;;4987485;28;20053;-88
2022/11/09 07:19:11;;;;;;;5.53;5.00;;;;;;;;;;5009897;28;20047;-88
2022/11/09 07:25:02;;;;;;;5.32;4.82;;;;;;;;;;4991686;28;20049;-87
2022/11/09 07:27:45;;;;;;;5.90;5.10;;;;;;;;;;5011174;28;20048;-88
2022/11/09 07:30:54;;;;;;;5.00;4.50;;;;;;;;;;4978523;28;20065;-89
2022/11/09 07:34:03;;;;;;;4.13;3.75;;;;;;;;;;5002423;28;20858;-88
2022/11/09 07:37:25;;;;;;;3.75;3.45;;;;;;;;;;4977021;28;20078;-88
2022/11/09 07:40:00;;;;;;;3.42;3.13;;;;;;;;;;5063613;23;20559;-75
2022/11/09 07:42:28;;;;;;;3.45;3.15;;;;;;;;;;5049534;28;20077;-74
2022/11/09 07:44:55;;;;;;;4.22;3.88;;;;;;;;;;5048643;28;20037;-74
2022/11/09 07:47:22;;;;;;;4.40;3.92;;;;;;;;;;5049940;28;20045;-74
2022/11/09 07:49:50;;;;;;;3.55;3.25;;;;;;;;;;5049259;28;20469;-73
2022/11/09 07:52:17;;;;;;;3.90;3.60;;;;;;;;;;5048665;28;20037;-74
2022/11/09 07:54:44;;;;;;;3.67;3.38;;;;;;;;;;5050503;28;20546;-75
2022/11/09 07:57:18;;;;;;;3.92;3.55;;;;;;;;;;5048413;28;20049;-74
2022/11/09 07:59:45;;;;;;;6.18;3.88;;;;;;;;;;5047318;28;20098;-74
2022/11/09 08:02:12;;;;;;;3.75;3.45;;;;;;;;;;5047741;28;20053;-73
2022/11/09 08:04:40;;;;;;;8.27;4.07;;;;;;;;;;5046263;28;20068;-74
2022/11/09 08:07:08;;;;;;;4.05;3.75;;;;;;;;;;5048575;28;20041;-74
2022/11/09 08:09:36;;;;;;;4.63;4.22;;;;;;;;;;5043914;28;20071;-73
2022/11/09 08:12:03;;;;;;;4.53;4.13;;;;;;;;;;5029401;28;20393;-74
2022/11/09 08:14:30;;;;;;;3.70;3.42;;;;;;;;;;5028567;28;20042;-74
2022/11/09 08:16:58;;;;;;;4.05;3.75;;;;;;;;;;5047963;28;20218;-75
2022/11/09 08:19:25;;;;;;;4.75;3.80;;;;;;;;;;5030170;28;20053;-75
2022/11/09 08:21:56;;;;;;;4.25;3.90;;;;;;;;;;5046287;28;20051;-75
2022/11/09 08:24:23;;;;;;;5.60;3.90;;;;;;;;;;5045039;28;20405;-74
2022/11/09 08:26:51;;;;;;;5.45;3.72;;;;;;;;;;5059611;28;20102;-74
2022/11/09 08:29:18;;;;;;;4.25;3.85;;;;;;;;;;5048757;28;20568;-75
2022/11/09 08:31:45;;;;;;;9.82;4.18;;;;;;;;;;5048198;28;20075;-75
2022/11/09 08:34:13;;;;;;;4.05;3.75;;;;;;;;;;5048015;28;20149;-75
2022/11/09 08:36:41;;;;;;;4.47;4.10;;;;;;;;;;5041113;28;20065;-74
2022/11/09 08:39:09;;;;;;;3.90;3.50;;;;;;;;;;5058689;28;20036;-74
2022/11/09 08:41:36;;;;;;;3.92;3.30;;;;;;;;;;5058883;28;20661;-74
2022/11/09 08:44:03;;;;;;;3.97;3.67;;;;;;;;;;5052523;28;20490;-74
2022/11/09 08:46:31;;;;;;;3.63;3.33;;;;;;;;;;5054896;28;20641;-75
2022/11/09 08:49:05;;;;;;;3.90;3.40;;;;;;;;;;5037801;28;20041;-75
2022/11/09 08:51:32;;;;;;;4.20;3.80;;;;;;;;;;5036115;28;20037;-75
2022/11/09 08:54:00;;;;;;;4.50;3.78;;;;;;;;;;5054895;28;20037;-75
2022/11/09 08:56:27;;;;;;;4.15;3.75;;;;;;;;;;5023436;28;20041;-75
2022/11/09 08:58:54;;;;;;;3.80;3.50;;;;;;;;;;5047471;28;20055;-75
2022/11/09 09:01:21;;;;;;;5.40;4.05;;;;;;;;;;5046965;28;20492;-75
2022/11/09 09:03:49;;;;;;;6.85;3.38;;;;;;;;;;5047785;28;20060;-75
2022/11/09 09:06:16;;;;;;;5.78;3.80;;;;;;;;;;5048633;28;20056;-75
2022/11/09 09:08:43;;;;;;;4.38;3.95;;;;;;;;;;5046645;28;20067;-75
2022/11/09 09:11:11;;;;;;;4.25;3.92;;;;;;;;;;5063078;28;20061;-75
2022/11/09 09:13:38;;;;;;;7.13;4.45;;;;;;;;;;5045973;28;20037;-75
2022/11/09 09:16:10;;;;;;;4.28;3.45;;;;;;;;;;5047723;28;20381;-75
2022/11/09 09:18:37;;;;;;;5.88;3.70;;;;;;;;;;5048066;28;20045;-75
2022/11/09 09:21:06;;;;;;;3.75;3.45;;;;;;;;;;5047575;28;20072;-75
2022/11/09 09:23:33;;;;;;;4.07;3.67;;;;;;;;;;5047302;28;20049;-75
2022/11/09 09:26:01;;;;;;;9.35;3.85;;;;;;;;;;5046678;28;20045;-75
2022/11/09 09:28:28;;;;;;;5.25;4.75;;;;;;;;;;5048025;28;20078;-75
2022/11/09 09:30:59;;;;;;;4.30;3.90;;;;;;;;;;5047805;28;20505;-75
2022/11/09 09:33:26;;;;;;;4.13;3.70;;;;;;;;;;5047730;28;20048;-75
2022/11/09 09:35:57;;;;;;;4.70;4.30;;;;;;;;;;5052461;28;20117;-75
2022/11/09 09:38:25;;;;;;;4.30;3.90;;;;;;;;;;5048415;28;20417;-75
2022/11/09 09:40:59;;;;;;;5.22;4.72;;;;;;;;;;5030515;28;20505;-75
2022/11/09 09:43:29;;;;;;;4.53;4.13;;;;;;;;;;5047819;28;20044;-75
2022/11/09 09:45:57;;;;;;;6.25;5.00;;;;;;;;;;5047964;28;20068;-75
2022/11/09 09:48:25;;;;;;;6.28;5.20;;;;;;;;;;5047758;28;20562;-75
2022/11/09 09:50:53;;;;;;;6.90;6.07;;;;;;;;;;5047349;28;20045;-76
2022/11/09 09:53:36;;;;;;;9.48;5.80;;;;;;;;;;5047555;28;20045;-75
2022/11/09 09:56:05;;;;;;;5.97;5.38;;;;;;;;;;5047997;28;20041;-75
2022/11/09 09:58:34;;;;;;;6.70;6.00;;;;;;;;;;5029248;28;20048;-75
2022/11/09 10:01:06;;;;;;;6.22;5.35;;;;;;;;;;5032184;28;20578;-75
2022/11/09 10:03:34;;;;;;;6.15;5.55;;;;;;;;;;5067717;28;20131;-75
2022/11/09 10:06:07;;;;;;;6.95;6.15;;;;;;;;;;5067762;28;20067;-75
2022/11/09 10:08:44;;;;;;;6.63;5.90;;;;;;;;;;5061445;28;20236;-75
2022/11/09 10:11:12;;;;;;;6.95;6.25;;;;;;;;;;5046811;28;20120;-75
2022/11/09 10:14:06;;;;;;;7.13;6.43;;;;;;;;;;5029486;28;20053;-75
2022/11/09 10:16:46;;;;;;;7.88;6.10;;;;;;;;;;5024174;28;20048;-75
2022/11/09 10:19:32;;;;;;;8.00;5.60;;;;;;;;;;5047105;28;20056;-75
2022/11/09 10:22:07;;;;;;;6.63;5.95;;;;;;;;;;5046264;28;20495;-74
2022/11/09 10:24:34;;;;;;;5.82;5.22;;;;;;;;;;5057918;28;20078;-75
2022/11/09 10:27:26;;;;;;;8.32;6.70;;;;;;;;;;5066859;28;20072;-75
2022/11/09 10:29:54;;;;;;;8.90;6.38;;;;;;;;;;5067459;28;20076;-75
2022/11/09 10:32:23;;;;;;;8.52;6.70;;;;;;;;;;5067293;28;20473;-75
2022/11/09 10:35:06;;;;;;;8.40;6.90;;;;;;;;;;5067358;28;20040;-75
2022/11/09 10:37:41;;;;;;;7.18;6.18;;;;;;;;;;5070200;28;20044;-75
2022/11/09 10:40:09;;;;;;;7.50;6.32;;;;;;;;;;5070963;28;20051;-74
2022/11/09 10:42:59;;;;;;;6.55;5.78;;;;;;;;;;5070518;28;20048;-74
2022/11/09 10:45:46;;;;;;;7.32;6.28;;;;;;;;;;5055954;28;20411;-74
2022/11/09 10:48:34;;;;;;;8.07;6.45;;;;;;;;;;5070784;28;20504;-75
2022/11/09 10:51:38;;;;;;;10.13;6.10;;;;;;;;;;5070704;28;20048;-73
2022/11/09 10:54:30;;;;;;;9.13;7.03;;;;;;;;;;5071364;28;20058;-73
2022/11/09 10:57:17;;;;;;;6.55;5.85;;;;;;;;;;5053276;28;20044;-73
2022/11/09 11:00:04;;;;;;;7.60;6.80;;;;;;;;;;5070744;28;20040;-74
2022/11/09 11:02:51;;;;;;;9.45;7.03;;;;;;;;;;5055551;28;20048;-74
2022/11/09 11:05:38;;;;;;;7.82;6.18;;;;;;;;;;5071226;28;20137;-75
2022/11/09 11:08:27;;;;;;;6.82;5.03;;;;;;;;;;5070449;28;20128;-75
2022/11/09 11:11:32;;;;;;;6.72;5.65;;;;;;;;;;5069847;28;20036;-75
2022/11/09 11:14:21;;;;;;;5.95;5.20;;;;;;;;;;5057707;28;20048;-75
2022/11/09 11:17:21;;;;;;;6.60;5.43;;;;;;;;;;5048704;28;20122;-75
2022/11/09 11:20:26;;;;;;;6.80;5.82;;;;;;;;;;5049637;28;20380;-75
2022/11/09 11:23:13;;;;;;;7.43;5.72;;;;;;;;;;5029314;28;20053;-75
2022/11/09 11:26:04;;;;;;;7.20;5.00;;;;;;;;;;5029396;28;20124;-75
2022/11/09 11:28:53;;;;;;;7.43;6.27;;;;;;;;;;5030905;28;20461;-75
2022/11/09 11:31:39;;;;;;;7.25;6.55;;;;;;;;;;5029700;28;20176;-75
2022/11/09 11:34:24;;;;;;;8.45;5.93;;;;;;;;;;5029724;28;20124;-75
2022/11/09 11:37:45;;;;;;;5.82;5.20;;;;;;;;;;5029998;28;20045;-75
2022/11/09 11:40:39;;;;;;;6.35;5.05;;;;;;;;;;5042296;28;20041;-75
2022/11/09 11:43:34;;;;;;;6.57;5.95;;;;;;;;;;5029870;28;20045;-75
2022/11/09 11:46:20;;;;;;;9.25;6.07;;;;;;;;;;5030235;28;20125;-75
2022/11/09 11:49:24;;;;;;;7.68;6.45;;;;;;;;;;5028629;28;20043;-74
2022/11/09 11:52:16;;;;;;;11.55;9.88;;;;;;;;;;5029322;28;20045;-75
2022/11/09 11:55:36;;;;;;;10.63;7.63;;;;;;;;;;5029834;28;20042;-74
2022/11/09 11:58:30;;;;;;;7.75;6.85;;;;;;;;;;5012864;28;20065;-75
2022/11/09 12:01:21;;;;;;;12.05;7.78;;;;;;;;;;5029516;28;20041;-74
2022/11/09 12:04:18;;;;;;;9.82;7.78;;;;;;;;;;5029266;28;20091;-73
2022/11/09 12:07:10;;;;;;;8.82;7.43;;;;;;;;;;5029398;28;20049;-73
2022/11/09 12:10:09;;;;;;;8.32;7.40;;;;;;;;;;5029019;28;20088;-75
2022/11/09 12:12:59;;;;;;;10.50;7.00;;;;;;;;;;5029014;28;20045;-75
2022/11/09 12:15:45;;;;;;;8.65;7.05;;;;;;;;;;5011925;28;20045;-73
2022/11/09 12:18:54;;;;;;;8.18;6.53;;;;;;;;;;5048839;28;20559;-75
2022/11/09 12:21:48;;;;;;;8.10;6.35;;;;;;;;;;5028156;28;20095;-74
2022/11/09 12:25:00;;;;;;;9.90;7.30;;;;;;;;;;5048639;28;20047;-75
2022/11/09 12:28:05;;;;;;;9.52;7.30;;;;;;;;;;5032399;28;20080;-74
2022/11/09 12:30:56;;;;;;;8.65;7.05;;;;;;;;;;5045414;28;20044;-75
2022/11/09 12:33:42;;;;;;;8.63;6.90;;;;;;;;;;5049108;28;20036;-75
2022/11/09 12:36:31;;;;;;;9.82;7.40;;;;;;;;;;5049455;28;20132;-75
2022/11/09 12:39:17;;;;;;;9.73;7.65;;;;;;;;;;5049147;28;20052;-75
2022/11/09 12:42:05;;;;;;;13.38;8.02;;;;;;;;;;5047870;28;20052;-75
2022/11/09 12:44:51;;;;;;;9.63;7.88;;;;;;;;;;5046572;28;20048;-74
2022/11/09 12:47:40;;;;;;;8.82;7.57;;;;;;;;;;5049095;28;20052;-75
2022/11/09 12:50:26;;;;;;;10.10;8.18;;;;;;;;;;5048714;28;20047;-74
2022/11/09 12:53:13;;;;;;;10.35;8.05;;;;;;;;;;5048986;28;20037;-75
2022/11/09 12:55:59;;;;;;;12.15;8.65;;;;;;;;;;5033253;28;20043;-75
2022/11/09 12:58:45;;;;;;;12.10;8.50;;;;;;;;;;5048046;28;20097;-75
2022/11/09 13:01:34;;;;;;;24.88;15.20;;;;;;;;;;5048052;28;20642;-74
2022/11/09 13:04:21;;;;;;;12.60;9.00;;;;;;;;;;5048297;28;20054;-75
2022/11/09 13:07:13;;;;;;;11.20;8.20;;;;;;;;;;5048836;28;20072;-74
2022/11/09 13:10:01;;;;;;;11.68;9.02;;;;;;;;;;5048384;28;20048;-74
2022/11/09 13:12:47;;;;;;;10.15;7.47;;;;;;;;;;5048050;28;20496;-75
2022/11/09 13:15:34;;;;;;;9.05;7.85;;;;;;;;;;5048294;28;20064;-75
2022/11/09 13:18:24;;;;;;;9.23;7.68;;;;;;;;;;5047320;28;20044;-75
2022/11/09 13:21:36;;;;;;;9.57;8.23;;;;;;;;;;5047536;28;20136;-75
2022/11/09 13:24:33;;;;;;;10.43;8.10;;;;;;;;;;5048287;28;20048;-75
2022/11/09 13:27:37;;;;;;;10.95;8.60;;;;;;;;;;5048491;28;20536;-75
2022/11/09 13:30:23;;;;;;;12.90;8.52;;;;;;;;;;5028948;28;20073;-76
2022/11/09 13:33:16;;;;;;;10.70;8.02;;;;;;;;;;5047276;28;20080;-75
2022/11/09 13:36:08;;;;;;;9.70;7.80;;;;;;;;;;5029220;28;20060;-76
2022/11/09 13:38:54;;;;;;;;;;;;;;;;;;5059751;28;20535;-76
2022/11/09 13:41:41;;;;;;;10.38;7.88;;;;;;;;;;5064015;28;19931;-75
2022/11/09 13:44:28;;;;;;;8.63;7.25;;;;;;;;;;5030435;28;20160;-75
2022/11/09 13:47:26;;;;;;;9.55;7.93;;;;;;;;;;5045476;28;20055;-76
2022/11/09 13:50:17;;;;;;;7.97;6.93;;;;;;;;;;5047433;28;20041;-75
2022/11/09 13:53:03;;;;;;;10.07;7.80;;;;;;;;;;5045476;28;20128;-75
2022/11/09 13:55:49;;;;;;;9.68;7.47;;;;;;;;;;5048052;28;20037;-75
2022/11/09 13:58:40;;;;;;;9.35;7.57;;;;;;;;;;5048235;28;20137;-75
2022/11/09 14:01:52;;;;;;;8.02;7.22;;;;;;;;;;5036575;28;20158;-74
2022/11/09 14:04:42;;;;;;;9.73;7.15;;;;;;;;;;5046643;28;20405;-74
2022/11/09 14:07:31;;;;;;;9.80;8.00;;;;;;;;;;5044023;28;20051;-74
2022/11/09 14:10:29;;;;;;;11.35;8.40;;;;;;;;;;5046989;28;20512;-75
2022/11/09 14:13:35;;;;;;;8.75;7.20;;;;;;;;;;5047134;28;20370;-74
2022/11/09 14:16:43;;;;;;;10.30;7.93;;;;;;;;;;5044630;28;20045;-75
2022/11/09 14:19:48;;;;;;;11.40;7.95;;;;;;;;;;5054999;28;20052;-76
2022/11/09 14:22:34;;;;;;;8.88;7.25;;;;;;;;;;5047729;28;20041;-73
2022/11/09 14:25:22;;;;;;;9.52;7.25;;;;;;;;;;5046524;28;20029;-74
2022/11/09 14:28:27;;;;;;;8.73;7.38;;;;;;;;;;5052348;28;21421;-73
2022/11/09 14:31:25;;;;;;;8.68;7.50;;;;;;;;;;5043706;28;20052;-75
2022/11/09 14:34:14;;;;;;;8.57;7.10;;;;;;;;;;5051513;28;20587;-75
2022/11/09 14:37:00;;;;;;;10.32;7.00;;;;;;;;;;5048267;28;20419;-74
2022/11/09 14:39:52;;;;;;;9.55;7.55;;;;;;;;;;5048480;28;20599;-73
2022/11/09 14:42:38;;;;;;;8.15;7.32;;;;;;;;;;5046311;28;20044;-74
2022/11/09 14:45:31;;;;;;;11.55;8.73;;;;;;;;;;5050083;28;20101;-74
2022/11/09 14:48:17;;;;;;;12.35;8.95;;;;;;;;;;5048560;28;20050;-74
2022/11/09 14:51:06;;;;;;;8.68;7.65;;;;;;;;;;5045472;28;20037;-74
2022/11/09 14:53:52;;;;;;;8.75;7.72;;;;;;;;;;5049848;28;20037;-74
2022/11/09 14:56:38;;;;;;;10.20;6.75;;;;;;;;;;5045483;28;20114;-74
2022/11/09 14:59:28;;;;;;;10.02;7.22;;;;;;;;;;5050671;28;20037;-75
2022/11/09 15:02:18;;;;;;;8.75;7.15;;;;;;;;;;5049185;28;20060;-75
2022/11/09 15:05:05;;;;;;;9.82;8.15;;;;;;;;;;5049885;28;20057;-74
2022/11/09 15:07:51;;;;;;;11.48;8.18;;;;;;;;;;5031063;28;20135;-75
2022/11/09 15:10:38;;;;;;;10.63;7.53;;;;;;;;;;5032937;28;20048;-74
2022/11/09 15:13:32;;;;;;;8.63;7.40;;;;;;;;;;5050450;28;20566;-74
2022/11/09 15:16:22;;;;;;;8.63;7.72;;;;;;;;;;5050077;28;20116;-74
2022/11/09 15:19:22;;;;;;;14.95;11.25;;;;;;;;;;5049086;28;20045;-74
2022/11/09 15:22:28;;;;;;;12.27;9.95;;;;;;;;;;5049025;28;20115;-74
2022/11/09 15:25:20;;;;;;;15.63;9.93;;;;;;;;;;5052003;28;20052;-74
2022/11/09 15:28:08;;;;;;;14.27;10.45;;;;;;;;;;5046324;28;20044;-75
2022/11/09 15:30:54;;;;;;;20.20;11.85;;;;;;;;;;5035057;28;20482;-75
2022/11/09 15:33:51;;;;;;;22.10;15.30;;;;;;;;;;5028747;28;20045;-75
2022/11/09 15:36:37;;;;;;;19.85;15.25;;;;;;;;;;5030391;28;20072;-76
2022/11/09 15:39:29;;;;;;;;;;;;;;;;;;5049280;28;20041;-76
2022/11/09 15:42:15;;;;;;;25.52;16.95;;;;;;;;;;5049395;28;20006;-75
2022/11/09 15:45:01;;;;;;;27.30;17.25;;;;;;;;;;5048663;28;20547;-75
2022/11/09 15:47:52;;;;;;;27.25;17.58;;;;;;;;;;5046404;28;20037;-75
2022/11/09 15:50:38;;;;;;;23.55;16.95;;;;;;;;;;5043877;28;20037;-75
2022/11/09 15:53:24;;;;;;;22.02;16.83;;;;;;;;;;5048077;28;20447;-75